Time,TemperatureF,DewpointF,PressureIn,WindDirection,WindDirectionDegrees,WindSpeedMPH,WindSpeedGustMPH,Humidity,HourlyPrecipIn,Conditions,Clouds,dailyrainin,SolarRadiationWatts/m^2,SoftwareType,DateUTC
2013-05-26 00:02:00,51.0,43.7,30.00,SE,130,0.0,0.0,76,0.00,,,0.00,0,Wunderground v.1.15,2013-05-26 07:02:00,
2013-05-26 00:07:00,50.8,43.5,30.00,ESE,116,0.0,0.0,76,0.00,,,0.00,0,Wunderground v.1.15,2013-05-26 07:07:00,
2013-05-26 00:12:00,50.5,43.2,30.00,ESE,116,0.0,0.0,76,0.00,,,0.00,0,Wunderground v.1.15,2013-05-26 07:12:00,
2013-05-26 00:17:00,50.3,43.4,30.00,East,80,0.0,0.0,77,0.00,,,0.00,0,Wunderground v.1.15,2013-05-26 07:17:00,
2013-05-26 00:22:00,50.4,43.5,30.00,SE,138,0.0,0.0,77,0.00,,,0.00,0,Wunderground v.1.15,2013-05-26 07:22:00,
2013-05-26 00:32:00,50.1,43.5,29.99,SSE,148,0.0,0.0,78,0.00,,,0.00,0,Wunderground v.1.15,2013-05-26 07:32:00,
2013-05-26 00:37:00,50.2,43.6,29.99,ESE,108,0.0,0.0,78,0.00,,,0.00,0,Wunderground v.1.15,2013-05-26 07:37:00,
2013-05-26 00:42:00,49.9,43.3,29.99,ESE,107,0.0,0.0,78,0.00,,,0.00,0,Wunderground v.1.15,2013-05-26 07:42:00,
2013-05-26 00:52:00,49.5,43.3,29.99,SE,146,0.0,0.0,79,0.00,,,0.00,0,Wunderground v.1.15,2013-05-26 07:52:00,
2013-05-26 00:57:00,49.3,43.1,29.99,East,90,0.0,0.0,79,0.00,,,0.00,0,Wunderground v.1.15,2013-05-26 07:57:00,
2013-05-26 01:02:00,49.1,42.9,29.99,East,90,0.0,0.0,79,0.00,,,0.00,0,Wunderground v.1.15,2013-05-26 08:02:00,
2013-05-26 01:07:00,49.0,42.8,29.99,SSE,153,0.0,0.0,79,0.00,,,0.00,0,Wunderground v.1.15,2013-05-26 08:07:00,
2013-05-26 01:12:00,49.2,43.3,29.99,ENE,76,0.0,0.0,80,0.00,,,0.00,0,Wunderground v.1.15,2013-05-26 08:12:00,
2013-05-26 01:17:00,49.7,43.8,29.99,NE,47,0.0,0.0,80,0.00,,,0.00,0,Wunderground v.1.15,2013-05-26 08:17:00,
2013-05-26 01:27:00,49.9,43.6,29.99,ENE,59,0.0,0.0,79,0.00,,,0.00,0,Wunderground v.1.15,2013-05-26 08:27:00,
2013-05-26 01:37:00,49.9,44.0,29.99,ESE,109,0.0,0.0,80,0.00,,,0.00,0,Wunderground v.1.15,2013-05-26 08:37:00,
2013-05-26 01:42:00,50.1,43.8,29.98,SE,128,0.0,0.0,79,0.00,,,0.00,0,Wunderground v.1.15,2013-05-26 08:42:00,
2013-05-26 01:47:00,50.2,43.9,29.99,ENE,59,0.0,0.0,79,0.00,,,0.00,0,Wunderground v.1.15,2013-05-26 08:47:00,
2013-05-26 01:52:00,50.1,43.8,29.99,ESE,116,0.0,0.0,79,0.00,,,0.00,0,Wunderground v.1.15,2013-05-26 08:52:00,
2013-05-26 01:57:00,50.1,43.8,29.99,East,94,0.0,0.0,79,0.00,,,0.00,0,Wunderground v.1.15,2013-05-26 08:57:00,
2013-05-26 02:02:00,50.1,43.8,29.99,ENE,65,0.0,0.0,79,0.00,,,0.00,0,Wunderground v.1.15,2013-05-26 09:02:00,
2013-05-26 02:07:00,50.2,43.9,29.99,East,80,0.0,0.0,79,0.00,,,0.00,0,Wunderground v.1.15,2013-05-26 09:07:00,
2013-05-26 02:12:00,50.2,43.9,29.99,East,98,0.0,0.0,79,0.00,,,0.00,0,Wunderground v.1.15,2013-05-26 09:12:00,
2013-05-26 02:17:00,50.1,43.8,29.99,ESE,105,0.0,1.0,79,0.00,,,0.00,0,Wunderground v.1.15,2013-05-26 09:17:00,
2013-05-26 02:22:00,50.0,43.7,29.99,NW,325,0.0,3.0,79,0.00,,,0.00,0,Wunderground v.1.15,2013-05-26 09:22:00,
2013-05-26 02:32:00,49.8,43.5,29.99,SW,226,0.0,0.0,79,0.00,,,0.00,0,Wunderground v.1.15,2013-05-26 09:32:00,
2013-05-26 02:37:00,49.7,43.5,29.99,ENE,73,0.0,0.0,79,0.00,,,0.00,0,Wunderground v.1.15,2013-05-26 09:37:00,
2013-05-26 02:47:00,49.5,43.6,29.99,NE,48,0.0,1.0,80,0.00,,,0.00,0,Wunderground v.1.15,2013-05-26 09:47:00,
2013-05-26 02:57:00,49.2,43.6,29.99,ESE,123,0.0,0.0,81,0.00,,,0.00,0,Wunderground v.1.15,2013-05-26 09:57:00,
2013-05-26 03:02:00,49.0,43.4,29.99,SE,139,0.0,0.0,81,0.00,,,0.00,0,Wunderground v.1.15,2013-05-26 10:02:00,
2013-05-26 03:07:00,49.0,43.7,29.99,North,5,0.0,0.0,82,0.00,,,0.00,0,Wunderground v.1.15,2013-05-26 10:07:00,
2013-05-26 03:12:00,49.1,43.8,29.99,East,94,0.0,0.0,82,0.00,,,0.00,0,Wunderground v.1.15,2013-05-26 10:12:00,
2013-05-26 03:17:00,49.0,44.1,29.99,ESE,106,0.0,0.0,83,0.00,,,0.00,0,Wunderground v.1.15,2013-05-26 10:17:00,
2013-05-26 03:27:00,48.7,43.8,29.99,ESE,102,0.0,0.0,83,0.00,,,0.00,0,Wunderground v.1.15,2013-05-26 10:27:00,
2013-05-26 03:37:00,48.6,44.0,29.99,South,188,0.0,0.0,84,0.00,,,0.00,0,Wunderground v.1.15,2013-05-26 10:37:00,
2013-05-26 03:47:00,48.2,43.9,30.00,ESE,114,0.0,0.0,85,0.00,,,0.00,0,Wunderground v.1.15,2013-05-26 10:47:00,
2013-05-26 03:52:00,48.1,43.8,30.00,ESE,103,0.0,0.0,85,0.00,,,0.00,0,Wunderground v.1.15,2013-05-26 10:52:00,
2013-05-26 04:02:00,48.0,44.0,30.00,SE,124,0.0,0.0,86,0.00,,,0.00,0,Wunderground v.1.15,2013-05-26 11:02:00,
2013-05-26 04:07:00,47.9,43.9,30.00,ESE,103,0.0,0.0,86,0.00,,,0.00,0,Wunderground v.1.15,2013-05-26 11:07:00,
2013-05-26 04:12:00,47.8,43.8,30.00,SSW,207,0.0,0.0,86,0.00,,,0.00,0,Wunderground v.1.15,2013-05-26 11:12:00,
2013-05-26 04:17:00,47.8,44.1,30.00,SE,129,0.0,0.0,87,0.00,,,0.00,0,Wunderground v.1.15,2013-05-26 11:17:00,
2013-05-26 04:27:00,47.8,44.1,30.00,South,187,0.0,0.0,87,0.00,,,0.00,0,Wunderground v.1.15,2013-05-26 11:27:00,
2013-05-26 04:32:00,47.6,43.9,30.00,SE,130,0.0,0.0,87,0.00,,,0.00,0,Wunderground v.1.15,2013-05-26 11:32:00,
2013-05-26 04:37:00,47.4,43.7,30.00,ESE,107,0.0,0.0,87,0.00,,,0.00,0,Wunderground v.1.15,2013-05-26 11:37:00,
2013-05-26 04:47:00,47.6,44.2,30.00,East,85,0.0,0.0,88,0.00,,,0.00,0,Wunderground v.1.15,2013-05-26 11:47:00,
2013-05-26 04:52:00,47.6,44.2,30.00,SSE,157,0.0,0.0,88,0.00,,,0.00,0,Wunderground v.1.15,2013-05-26 11:52:00,
2013-05-26 04:57:00,47.5,44.1,30.00,ESE,116,0.0,1.0,88,0.00,,,0.00,0,Wunderground v.1.15,2013-05-26 11:57:00,
2013-05-26 05:02:00,47.5,44.1,30.00,ESE,103,0.0,0.0,88,0.00,,,0.00,0,Wunderground v.1.15,2013-05-26 12:02:00,
2013-05-26 05:07:00,47.4,44.0,30.00,SSW,192,0.0,0.0,88,0.00,,,0.00,0,Wunderground v.1.15,2013-05-26 12:07:00,
2013-05-26 05:17:00,47.1,43.7,30.00,SE,142,0.0,0.0,88,0.00,,,0.00,0,Wunderground v.1.15,2013-05-26 12:17:00,
2013-05-26 05:22:00,46.9,43.8,30.01,SE,125,0.0,0.0,89,0.00,,,0.00,0,Wunderground v.1.15,2013-05-26 12:22:00,
2013-05-26 05:32:00,46.5,43.4,30.01,SE,130,0.0,0.0,89,0.00,,,0.00,0,Wunderground v.1.15,2013-05-26 12:32:00,
2013-05-26 05:42:00,46.4,43.6,30.01,ESE,114,0.0,0.0,90,0.00,,,0.00,0,Wunderground v.1.15,2013-05-26 12:42:00,
2013-05-26 05:47:00,46.4,43.6,30.00,ESE,115,0.0,2.0,90,0.00,,,0.00,0,Wunderground v.1.15,2013-05-26 12:47:00,
2013-05-26 05:57:00,47.0,44.5,30.01,NE,45,0.0,0.0,91,0.00,,,0.00,7,Wunderground v.1.15,2013-05-26 12:57:00,
2013-05-26 06:02:00,47.1,44.3,30.01,ENE,76,0.0,0.0,90,0.00,,,0.00,9,Wunderground v.1.15,2013-05-26 13:02:00,
2013-05-26 06:12:00,47.2,44.4,30.02,East,95,0.0,0.0,90,0.00,,,0.00,12,Wunderground v.1.15,2013-05-26 13:12:00,
2013-05-26 06:22:00,47.4,44.6,30.02,SE,127,0.0,0.0,90,0.00,,,0.00,16,Wunderground v.1.15,2013-05-26 13:22:00,
2013-05-26 06:27:00,47.5,44.7,30.02,East,97,0.0,0.0,90,0.00,,,0.00,16,Wunderground v.1.15,2013-05-26 13:27:00,
2013-05-26 06:37:00,47.9,45.1,30.03,ENE,57,0.0,0.0,90,0.00,,,0.00,21,Wunderground v.1.15,2013-05-26 13:37:00,
2013-05-26 06:42:00,48.1,45.3,30.03,NE,46,0.0,0.0,90,0.00,,,0.00,25,Wunderground v.1.15,2013-05-26 13:42:00,
2013-05-26 06:47:00,48.2,45.4,30.03,East,92,0.0,0.0,90,0.00,,,0.00,28,Wunderground v.1.15,2013-05-26 13:47:00,
2013-05-26 06:57:00,48.9,46.1,30.04,SE,132,0.0,0.0,90,0.00,,,0.00,62,Wunderground v.1.15,2013-05-26 13:57:00,
2013-05-26 07:02:00,49.4,46.3,30.03,ENE,75,0.0,0.0,89,0.00,,,0.00,51,Wunderground v.1.15,2013-05-26 14:02:00,
2013-05-26 07:07:00,49.8,46.7,30.03,SE,138,0.0,0.0,89,0.00,,,0.00,54,Wunderground v.1.15,2013-05-26 14:07:00,
2013-05-26 07:12:00,50.1,46.7,30.04,WNW,290,0.0,0.0,88,0.00,,,0.00,63,Wunderground v.1.15,2013-05-26 14:12:00,
2013-05-26 07:17:00,50.3,46.9,30.04,SSE,148,0.0,2.0,88,0.00,,,0.00,69,Wunderground v.1.15,2013-05-26 14:17:00,
2013-05-26 07:27:00,50.6,46.9,30.04,SSE,162,0.0,0.0,87,0.00,,,0.00,95,Wunderground v.1.15,2013-05-26 14:27:00,
2013-05-26 07:32:00,50.9,47.2,30.04,ESE,115,0.0,0.0,87,0.00,,,0.00,100,Wunderground v.1.15,2013-05-26 14:32:00,
2013-05-26 07:42:00,51.3,47.3,30.05,SE,146,0.0,0.0,86,0.00,,,0.00,113,Wunderground v.1.15,2013-05-26 14:42:00,
2013-05-26 07:47:00,51.6,47.5,30.05,NE,54,0.0,0.0,86,0.00,,,0.00,104,Wunderground v.1.15,2013-05-26 14:47:00,
2013-05-26 07:52:00,51.9,47.5,30.05,SE,146,0.0,0.0,85,0.00,,,0.00,123,Wunderground v.1.15,2013-05-26 14:52:00,
2013-05-26 08:02:00,52.1,47.4,30.05,NE,52,0.0,0.0,84,0.00,,,0.00,137,Wunderground v.1.15,2013-05-26 15:02:00,
2013-05-26 08:07:00,52.5,47.8,30.06,NNE,14,0.0,0.0,84,0.00,,,0.00,155,Wunderground v.1.15,2013-05-26 15:07:00,
2013-05-26 08:12:00,52.5,47.8,30.05,SSW,202,0.0,0.0,84,0.00,,,0.00,149,Wunderground v.1.15,2013-05-26 15:12:00,
2013-05-26 08:17:00,52.7,48.0,30.06,SE,142,0.0,3.0,84,0.00,,,0.00,171,Wunderground v.1.15,2013-05-26 15:17:00,
2013-05-26 08:22:00,53.1,48.1,30.05,ENE,61,0.0,0.0,83,0.00,,,0.00,413,Wunderground v.1.15,2013-05-26 15:22:00,
2013-05-26 08:27:00,53.5,47.8,30.05,SW,234,1.0,1.0,81,0.00,,,0.00,197,Wunderground v.1.15,2013-05-26 15:27:00,
2013-05-26 08:32:00,53.3,47.9,30.06,SSE,165,1.0,1.0,82,0.00,,,0.00,229,Wunderground v.1.15,2013-05-26 15:32:00,
2013-05-26 08:42:00,53.6,47.9,30.06,East,94,0.0,1.0,81,0.00,,,0.00,193,Wunderground v.1.15,2013-05-26 15:42:00,
2013-05-26 08:52:00,53.9,48.2,30.06,East,93,0.0,0.0,81,0.00,,,0.00,155,Wunderground v.1.15,2013-05-26 15:52:00,
2013-05-26 09:02:00,54.0,48.0,30.06,South,184,0.0,0.0,80,0.00,,,0.00,183,Wunderground v.1.15,2013-05-26 16:02:00,
2013-05-26 09:07:00,54.4,48.7,30.06,ENE,67,0.0,0.0,81,0.00,,,0.00,181,Wunderground v.1.15,2013-05-26 16:07:00,
2013-05-26 09:12:00,54.7,48.6,30.06,SSE,159,0.0,3.0,80,0.00,,,0.00,295,Wunderground v.1.15,2013-05-26 16:12:00,
2013-05-26 09:22:00,57.0,49.5,30.06,South,169,1.0,1.0,76,0.00,,,0.00,548,Wunderground v.1.15,2013-05-26 16:22:00,
2013-05-26 09:32:00,57.2,49.3,30.06,South,173,0.0,4.0,75,0.00,,,0.00,455,Wunderground v.1.15,2013-05-26 16:32:00,
2013-05-26 09:37:00,56.9,49.4,30.06,SW,217,1.0,4.0,76,0.00,,,0.00,490,Wunderground v.1.15,2013-05-26 16:37:00,
2013-05-26 09:42:00,57.4,49.5,30.06,WSW,252,1.0,1.0,75,0.00,,,0.00,580,Wunderground v.1.15,2013-05-26 16:42:00,
2013-05-26 09:47:00,58.1,50.2,30.06,ESE,110,1.0,1.0,75,0.00,,,0.00,538,Wunderground v.1.15,2013-05-26 16:47:00,
2013-05-26 09:57:00,59.1,50.5,30.06,West,260,1.0,1.0,73,0.00,,,0.00,629,Wunderground v.1.15,2013-05-26 16:57:00,
2013-05-26 10:02:00,58.9,49.5,30.07,NE,36,1.0,1.0,71,0.00,,,0.00,670,Wunderground v.1.15,2013-05-26 17:02:00,
2013-05-26 10:07:00,59.5,50.5,30.07,NNE,23,1.0,2.0,72,0.00,,,0.00,691,Wunderground v.1.15,2013-05-26 17:07:00,
2013-05-26 10:12:00,60.4,50.2,30.07,NNW,343,1.0,1.0,69,0.00,,,0.00,705,Wunderground v.1.15,2013-05-26 17:12:00,
2013-05-26 10:22:00,60.5,50.3,30.07,NNE,32,1.0,1.0,69,0.00,,,0.00,712,Wunderground v.1.15,2013-05-26 17:22:00,
2013-05-26 10:27:00,61.3,50.6,30.07,West,279,1.0,1.0,68,0.00,,,0.00,754,Wunderground v.1.15,2013-05-26 17:27:00,
2013-05-26 10:32:00,61.9,50.8,30.07,NE,34,1.0,1.0,67,0.00,,,0.00,765,Wunderground v.1.15,2013-05-26 17:32:00,
2013-05-26 10:37:00,62.5,51.0,30.07,SW,221,1.0,1.0,66,0.00,,,0.00,773,Wunderground v.1.15,2013-05-26 17:37:00,
2013-05-26 10:42:00,62.6,50.7,30.07,SW,217,1.0,1.0,65,0.00,,,0.00,751,Wunderground v.1.15,2013-05-26 17:42:00,
2013-05-26 10:52:00,62.0,49.3,30.07,West,266,2.0,2.0,63,0.00,,,0.00,735,Wunderground v.1.15,2013-05-26 17:52:00,
2013-05-26 10:57:00,62.5,50.6,30.07,WNW,303,1.0,3.0,65,0.00,,,0.00,722,Wunderground v.1.15,2013-05-26 17:57:00,
2013-05-26 11:02:00,63.4,51.0,30.07,ESE,123,1.0,1.0,64,0.00,,,0.00,788,Wunderground v.1.15,2013-05-26 18:02:00,
2013-05-26 11:07:00,63.2,50.4,30.07,WSW,246,1.0,1.0,63,0.00,,,0.00,814,Wunderground v.1.15,2013-05-26 18:07:00,
2013-05-26 11:12:00,63.2,50.4,30.07,SE,127,1.0,1.0,63,0.00,,,0.00,821,Wunderground v.1.15,2013-05-26 18:12:00,
2013-05-26 11:22:00,63.8,50.1,30.07,NNE,13,1.0,1.0,61,0.00,,,0.00,831,Wunderground v.1.15,2013-05-26 18:22:00,
2013-05-26 11:32:00,64.3,51.0,30.07,ENE,64,1.0,1.0,62,0.00,,,0.00,847,Wunderground v.1.15,2013-05-26 18:32:00,
2013-05-26 11:37:00,65.6,51.3,30.07,West,277,1.0,1.0,60,0.00,,,0.00,923,Wunderground v.1.15,2013-05-26 18:37:00,
2013-05-26 11:42:00,66.0,52.2,30.07,SW,219,1.0,1.0,61,0.00,,,0.00,904,Wunderground v.1.15,2013-05-26 18:42:00,
2013-05-26 11:52:00,66.4,51.2,30.07,SSW,193,1.0,1.0,58,0.00,,,0.00,896,Wunderground v.1.15,2013-05-26 18:52:00,
2013-05-26 11:57:00,65.8,51.5,30.07,WSW,254,1.0,1.0,60,0.00,,,0.00,902,Wunderground v.1.15,2013-05-26 18:57:00,
2013-05-26 12:07:00,67.2,50.5,30.07,SSE,155,1.0,1.0,55,0.00,,,0.00,918,Wunderground v.1.15,2013-05-26 19:07:00,
2013-05-26 12:17:00,67.6,51.3,30.07,WSW,237,1.0,2.0,56,0.00,,,0.00,904,Wunderground v.1.15,2013-05-26 19:17:00,
2013-05-26 12:22:00,68.2,51.9,30.07,SE,127,1.0,1.0,56,0.00,,,0.00,891,Wunderground v.1.15,2013-05-26 19:22:00,
2013-05-26 12:27:00,67.9,52.1,30.07,ESE,110,1.0,1.0,57,0.00,,,0.00,912,Wunderground v.1.15,2013-05-26 19:27:00,
2013-05-26 12:32:00,69.2,52.3,30.07,SE,136,0.0,0.0,55,0.00,,,0.00,926,Wunderground v.1.15,2013-05-26 19:32:00,
2013-05-26 12:42:00,67.7,49.9,30.06,ENE,64,0.0,0.0,53,0.00,,,0.00,930,Wunderground v.1.15,2013-05-26 19:42:00,
2013-05-26 12:47:00,68.6,50.8,30.06,South,191,1.0,1.0,53,0.00,,,0.00,932,Wunderground v.1.15,2013-05-26 19:47:00,
2013-05-26 12:57:00,68.6,51.3,30.06,SE,146,0.0,1.0,54,0.00,,,0.00,935,Wunderground v.1.15,2013-05-26 19:57:00,
2013-05-26 13:02:00,69.9,51.5,30.06,SE,130,1.0,1.0,52,0.00,,,0.00,933,Wunderground v.1.15,2013-05-26 20:02:00,
2013-05-26 13:07:00,70.3,51.3,30.06,NNW,331,1.0,1.0,51,0.00,,,0.00,937,Wunderground v.1.15,2013-05-26 20:07:00,
2013-05-26 13:17:00,70.0,51.0,30.06,SE,136,1.0,1.0,51,0.00,,,0.00,940,Wunderground v.1.15,2013-05-26 20:17:00,
2013-05-26 13:22:00,71.2,50.5,30.06,ENE,58,1.0,1.0,48,0.00,,,0.00,940,Wunderground v.1.15,2013-05-26 20:22:00,
2013-05-26 13:27:00,70.2,50.1,30.06,WSW,247,1.0,3.0,49,0.00,,,0.00,939,Wunderground v.1.15,2013-05-26 20:27:00,
2013-05-26 13:32:00,71.3,51.7,30.06,SE,140,1.0,1.0,50,0.00,,,0.00,937,Wunderground v.1.15,2013-05-26 20:32:00,
2013-05-26 13:37:00,71.9,50.6,30.06,SW,234,0.0,1.0,47,0.00,,,0.00,932,Wunderground v.1.15,2013-05-26 20:37:00,
2013-05-26 13:42:00,71.6,49.7,30.06,SE,138,1.0,1.0,46,0.00,,,0.00,933,Wunderground v.1.15,2013-05-26 20:42:00,
2013-05-26 13:47:00,69.9,49.3,30.06,South,187,1.0,1.0,48,0.00,,,0.00,930,Wunderground v.1.15,2013-05-26 20:47:00,
2013-05-26 13:57:00,71.3,50.6,30.05,SSW,212,1.0,1.0,48,0.00,,,0.00,923,Wunderground v.1.15,2013-05-26 20:57:00,
2013-05-26 14:02:00,71.4,48.9,30.06,WSW,240,0.0,0.0,45,0.00,,,0.00,919,Wunderground v.1.15,2013-05-26 21:02:00,
2013-05-26 14:07:00,71.3,49.4,30.06,SSW,201,1.0,1.0,46,0.00,,,0.00,918,Wunderground v.1.15,2013-05-26 21:07:00,
2013-05-26 14:12:00,71.7,49.8,30.05,WSW,255,1.0,1.0,46,0.00,,,0.00,916,Wunderground v.1.15,2013-05-26 21:12:00,
2013-05-26 14:17:00,72.8,49.6,30.05,ESE,106,1.0,1.0,44,0.00,,,0.00,905,Wunderground v.1.15,2013-05-26 21:17:00,
2013-05-26 14:27:00,73.5,50.9,30.05,South,184,0.0,2.0,45,0.00,,,0.00,889,Wunderground v.1.15,2013-05-26 21:27:00,
2013-05-26 14:32:00,74.2,50.9,30.05,SSW,200,1.0,1.0,44,0.00,,,0.00,888,Wunderground v.1.15,2013-05-26 21:32:00,
2013-05-26 14:42:00,73.6,50.3,30.05,West,271,1.0,1.0,44,0.00,,,0.00,877,Wunderground v.1.15,2013-05-26 21:42:00,
2013-05-26 14:47:00,74.0,50.7,30.05,NNE,33,1.0,1.0,44,0.00,,,0.00,874,Wunderground v.1.15,2013-05-26 21:47:00,
2013-05-26 14:57:00,72.5,49.9,30.05,West,277,1.0,1.0,45,0.00,,,0.00,858,Wunderground v.1.15,2013-05-26 21:57:00,
2013-05-26 15:02:00,73.9,50.0,30.04,NNE,25,1.0,1.0,43,0.00,,,0.00,847,Wunderground v.1.15,2013-05-26 22:02:00,
2013-05-26 15:07:00,73.9,48.7,30.04,South,178,1.0,1.0,41,0.00,,,0.00,838,Wunderground v.1.15,2013-05-26 22:07:00,
2013-05-26 15:17:00,74.1,49.5,30.04,SSW,208,1.0,1.0,42,0.00,,,0.00,826,Wunderground v.1.15,2013-05-26 22:17:00,
2013-05-26 15:22:00,74.0,48.8,30.04,South,189,0.0,1.0,41,0.00,,,0.00,814,Wunderground v.1.15,2013-05-26 22:22:00,
2013-05-26 15:27:00,73.9,48.7,30.03,NNW,336,1.0,1.0,41,0.00,,,0.00,803,Wunderground v.1.15,2013-05-26 22:27:00,
2013-05-26 15:32:00,73.7,48.5,30.03,WSW,252,1.0,1.0,41,0.00,,,0.00,788,Wunderground v.1.15,2013-05-26 22:32:00,
2013-05-26 15:37:00,73.5,48.4,30.03,WNW,289,1.0,1.0,41,0.00,,,0.00,780,Wunderground v.1.15,2013-05-26 22:37:00,
2013-05-26 15:47:00,74.5,51.2,30.03,NNW,345,0.0,4.0,44,0.00,,,0.00,752,Wunderground v.1.15,2013-05-26 22:47:00,
2013-05-26 15:52:00,74.8,49.5,30.03,SW,215,1.0,1.0,41,0.00,,,0.00,744,Wunderground v.1.15,2013-05-26 22:52:00,
2013-05-26 16:02:00,73.3,49.4,30.03,WSW,246,0.0,3.0,43,0.00,,,0.00,768,Wunderground v.1.15,2013-05-26 23:02:00,
2013-05-26 16:12:00,72.5,48.1,30.03,SSE,161,1.0,1.0,42,0.00,,,0.00,102,Wunderground v.1.15,2013-05-26 23:12:00,
2013-05-26 16:17:00,72.1,49.0,30.02,WNW,293,0.0,2.0,44,0.00,,,0.00,708,Wunderground v.1.15,2013-05-26 23:17:00,
2013-05-26 16:22:00,74.3,49.7,30.02,ENE,73,1.0,1.0,42,0.00,,,0.00,680,Wunderground v.1.15,2013-05-26 23:22:00,
2013-05-26 16:32:00,75.3,48.6,30.02,WSW,248,0.0,1.0,39,0.00,,,0.00,647,Wunderground v.1.15,2013-05-26 23:32:00,
2013-05-26 16:42:00,76.3,50.9,30.02,East,93,0.0,1.0,41,0.00,,,0.00,613,Wunderground v.1.15,2013-05-26 23:42:00,
2013-05-26 16:47:00,75.5,48.8,30.02,SW,217,0.0,1.0,39,0.00,,,0.00,596,Wunderground v.1.15,2013-05-26 23:47:00,
2013-05-26 16:52:00,75.4,48.7,30.02,ESE,109,1.0,2.0,39,0.00,,,0.00,578,Wunderground v.1.15,2013-05-26 23:52:00,
2013-05-26 17:02:00,75.5,48.8,30.02,SE,134,0.0,0.0,39,0.00,,,0.00,554,Wunderground v.1.15,2013-05-27 00:02:00,
2013-05-26 17:07:00,75.1,47.0,30.02,SW,216,1.0,2.0,37,0.00,,,0.00,531,Wunderground v.1.15,2013-05-27 00:07:00,
2013-05-26 17:12:00,74.2,47.0,30.02,SSW,202,1.0,1.0,38,0.00,,,0.00,517,Wunderground v.1.15,2013-05-27 00:12:00,
2013-05-26 17:22:00,73.9,47.4,30.02,WSW,242,0.0,3.0,39,0.00,,,0.00,487,Wunderground v.1.15,2013-05-27 00:22:00,
2013-05-26 17:27:00,74.0,48.1,30.02,West,261,1.0,3.0,40,0.00,,,0.00,476,Wunderground v.1.15,2013-05-27 00:27:00,
2013-05-26 17:32:00,73.4,46.9,30.01,NW,326,1.0,2.0,39,0.00,,,0.00,455,Wunderground v.1.15,2013-05-27 00:32:00,
2013-05-26 17:42:00,74.1,48.2,30.01,SW,227,0.0,0.0,40,0.00,,,0.00,427,Wunderground v.1.15,2013-05-27 00:42:00,
2013-05-26 17:47:00,73.9,46.7,30.01,West,266,0.0,0.0,38,0.00,,,0.00,411,Wunderground v.1.15,2013-05-27 00:47:00,
2013-05-26 17:57:00,73.2,48.1,30.01,WSW,246,1.0,4.0,41,0.00,,,0.00,374,Wunderground v.1.15,2013-05-27 00:57:00,
2013-05-26 18:02:00,72.8,49.0,30.01,SSE,147,1.0,1.0,43,0.00,,,0.00,364,Wunderground v.1.15,2013-05-27 01:02:00,
2013-05-26 18:12:00,72.2,49.1,30.01,NW,317,0.0,0.0,44,0.00,,,0.00,327,Wunderground v.1.15,2013-05-27 01:12:00,
2013-05-26 18:17:00,71.5,49.0,30.01,SW,223,0.0,0.0,45,0.00,,,0.00,308,Wunderground v.1.15,2013-05-27 01:17:00,
2013-05-26 18:27:00,70.9,49.1,30.01,ENE,76,1.0,3.0,46,0.00,,,0.00,214,Wunderground v.1.15,2013-05-27 01:27:00,
2013-05-26 18:32:00,70.7,49.5,30.01,ESE,110,0.0,1.0,47,0.00,,,0.00,192,Wunderground v.1.15,2013-05-27 01:32:00,
2013-05-26 18:37:00,70.5,48.7,30.01,West,259,1.0,1.0,46,0.00,,,0.00,135,Wunderground v.1.15,2013-05-27 01:37:00,
2013-05-26 18:47:00,69.7,49.7,30.01,SE,142,0.0,0.0,49,0.00,,,0.00,37,Wunderground v.1.15,2013-05-27 01:47:00,
2013-05-26 18:52:00,69.3,49.3,30.01,SSW,194,0.0,0.0,49,0.00,,,0.00,35,Wunderground v.1.15,2013-05-27 01:52:00,
2013-05-26 18:57:00,69.0,49.0,30.01,South,187,0.0,0.0,49,0.00,,,0.00,33,Wunderground v.1.15,2013-05-27 01:57:00,
2013-05-26 19:07:00,68.3,48.9,30.01,SW,217,0.0,1.0,50,0.00,,,0.00,28,Wunderground v.1.15,2013-05-27 02:07:00,
2013-05-26 19:17:00,67.7,48.9,30.02,East,101,1.0,2.0,51,0.00,,,0.00,25,Wunderground v.1.15,2013-05-27 02:17:00,
2013-05-26 19:22:00,67.4,49.2,30.02,WNW,287,1.0,1.0,52,0.00,,,0.00,23,Wunderground v.1.15,2013-05-27 02:22:00,
2013-05-26 19:32:00,66.5,48.8,30.02,North,350,0.0,0.0,53,0.00,,,0.00,21,Wunderground v.1.15,2013-05-27 02:32:00,
2013-05-26 19:37:00,65.9,48.8,30.02,SSW,198,0.0,0.0,54,0.00,,,0.00,19,Wunderground v.1.15,2013-05-27 02:37:00,
2013-05-26 19:42:00,65.5,48.9,30.02,NW,319,0.0,2.0,55,0.00,,,0.00,18,Wunderground v.1.15,2013-05-27 02:42:00,
2013-05-26 19:47:00,65.0,48.9,30.03,WSW,255,0.0,2.0,56,0.00,,,0.00,16,Wunderground v.1.15,2013-05-27 02:47:00,
2013-05-26 19:57:00,64.0,48.9,30.03,WNW,286,1.0,1.0,58,0.00,,,0.00,12,Wunderground v.1.15,2013-05-27 02:57:00,
2013-05-26 20:07:00,62.9,48.3,30.04,WNW,284,0.0,0.0,59,0.00,,,0.00,7,Wunderground v.1.15,2013-05-27 03:07:00,
2013-05-26 20:12:00,62.3,47.8,30.04,West,259,0.0,0.0,59,0.00,,,0.00,5,Wunderground v.1.15,2013-05-27 03:12:00,
2013-05-26 20:22:00,61.2,47.6,30.04,ENE,78,0.0,0.0,61,0.00,,,0.00,0,Wunderground v.1.15,2013-05-27 03:22:00,
2013-05-26 20:27:00,60.7,47.6,30.05,ENE,78,0.0,0.0,62,0.00,,,0.00,0,Wunderground v.1.15,2013-05-27 03:27:00,
2013-05-26 20:32:00,59.9,47.3,30.05,ENE,78,0.0,0.0,63,0.00,,,0.00,0,Wunderground v.1.15,2013-05-27 03:32:00,
2013-05-26 20:42:00,58.6,46.9,30.05,East,95,0.0,0.0,65,0.00,,,0.00,0,Wunderground v.1.15,2013-05-27 03:42:00,
2013-05-26 20:47:00,58.1,46.8,30.05,ESE,113,0.0,0.0,66,0.00,,,0.00,0,Wunderground v.1.15,2013-05-27 03:47:00,
2013-05-26 20:57:00,57.2,46.3,30.05,ESE,113,0.0,0.0,67,0.00,,,0.00,0,Wunderground v.1.15,2013-05-27 03:57:00,
2013-05-26 21:02:00,56.8,46.0,30.05,ESE,113,0.0,0.0,67,0.00,,,0.00,0,Wunderground v.1.15,2013-05-27 04:02:00,
2013-05-26 21:07:00,56.6,46.2,30.05,East,90,0.0,0.0,68,0.00,,,0.00,0,Wunderground v.1.15,2013-05-27 04:07:00,
2013-05-26 21:12:00,56.5,46.4,30.05,East,90,0.0,0.0,69,0.00,,,0.00,0,Wunderground v.1.15,2013-05-27 04:12:00,
2013-05-26 21:17:00,56.6,46.9,30.05,East,90,0.0,0.0,70,0.00,,,0.00,0,Wunderground v.1.15,2013-05-27 04:17:00,
2013-05-26 21:22:00,56.7,47.0,30.05,ENE,63,0.0,0.0,70,0.00,,,0.00,0,Wunderground v.1.15,2013-05-27 04:22:00,
2013-05-26 21:27:00,56.5,47.2,30.06,ENE,73,0.0,0.0,71,0.00,,,0.00,0,Wunderground v.1.15,2013-05-27 04:27:00,
2013-05-26 21:37:00,56.6,47.3,30.06,ENE,76,0.0,2.0,71,0.00,,,0.00,0,Wunderground v.1.15,2013-05-27 04:37:00,
2013-05-26 21:42:00,56.5,47.6,30.06,ENE,76,0.0,0.0,72,0.00,,,0.00,0,Wunderground v.1.15,2013-05-27 04:42:00,
2013-05-26 21:47:00,56.4,47.1,30.06,ESE,111,0.0,0.0,71,0.00,,,0.00,0,Wunderground v.1.15,2013-05-27 04:47:00,
2013-05-26 21:52:00,55.8,46.9,30.07,ESE,111,0.0,0.0,72,0.00,,,0.00,0,Wunderground v.1.15,2013-05-27 04:52:00,
2013-05-26 22:02:00,55.7,47.5,30.07,East,89,0.0,0.0,74,0.00,,,0.00,0,Wunderground v.1.15,2013-05-27 05:02:00,
2013-05-26 22:07:00,55.7,47.2,30.07,ESE,115,0.0,0.0,73,0.00,,,0.00,0,Wunderground v.1.15,2013-05-27 05:07:00,
2013-05-26 22:17:00,55.3,47.2,30.08,ESE,117,0.0,0.0,74,0.00,,,0.00,0,Wunderground v.1.15,2013-05-27 05:17:00,
2013-05-26 22:22:00,55.1,47.0,30.08,NE,51,0.0,0.0,74,0.00,,,0.00,0,Wunderground v.1.15,2013-05-27 05:22:00,
2013-05-26 22:32:00,54.6,47.2,30.08,ESE,103,0.0,0.0,76,0.00,,,0.00,0,Wunderground v.1.15,2013-05-27 05:32:00,
2013-05-26 22:42:00,54.4,46.6,30.09,SE,138,0.0,0.0,75,0.00,,,0.00,0,Wunderground v.1.15,2013-05-27 05:42:00,
2013-05-26 22:47:00,54.1,46.7,30.09,SE,133,0.0,0.0,76,0.00,,,0.00,0,Wunderground v.1.15,2013-05-27 05:47:00,
2013-05-26 22:52:00,53.9,46.5,30.09,ENE,63,0.0,0.0,76,0.00,,,0.00,0,Wunderground v.1.15,2013-05-27 05:52:00,
2013-05-26 23:02:00,53.6,46.6,30.09,ESE,106,0.0,0.0,77,0.00,,,0.00,0,Wunderground v.1.15,2013-05-27 06:02:00,
2013-05-26 23:07:00,53.3,46.3,30.09,ESE,114,0.0,0.0,77,0.00,,,0.00,0,Wunderground v.1.15,2013-05-27 06:07:00,
2013-05-26 23:12:00,53.1,46.1,30.09,NE,51,0.0,0.0,77,0.00,,,0.00,0,Wunderground v.1.15,2013-05-27 06:12:00,
2013-05-26 23:22:00,52.7,46.0,30.08,NE,36,0.0,0.0,78,0.00,,,0.00,0,Wunderground v.1.15,2013-05-27 06:22:00,
2013-05-26 23:27:00,52.6,45.9,30.08,NE,36,0.0,0.0,78,0.00,,,0.00,0,Wunderground v.1.15,2013-05-27 06:27:00,
2013-05-26 23:32:00,52.3,46.0,30.08,NE,36,0.0,0.0,79,0.00,,,0.00,0,Wunderground v.1.15,2013-05-27 06:32:00,
2013-05-26 23:37:00,52.4,46.1,30.08,NE,44,0.0,1.0,79,0.00,,,0.00,0,Wunderground v.1.15,2013-05-27 06:37:00,
2013-05-26 23:47:00,52.1,45.8,30.08,ENE,76,0.0,0.0,79,0.00,,,0.00,0,Wunderground v.1.15,2013-05-27 06:47:00,
2013-05-26 23:52:00,51.9,45.6,30.08,ENE,76,0.0,0.0,79,0.00,,,0.00,0,Wunderground v.1.15,2013-05-27 06:52:00,
2013-05-26 23:57:00,51.7,45.7,30.08,ESE,107,0.0,0.0,80,0.00,,,0.00,0,Wunderground v.1.15,2013-05-27 06:57:00,